Lewistown, MT

6:13 AM MST on December 07, 2016 (GMT -0700)
3rd Ave S Lewistown | | Change Station
Active Advisory: Wind Chill Advisory

Elev 3927 ft 47.06 °N, 109.42 °W | Updated 14 seconds ago

Clear
Clear
-5.8 °F
Feels Like -6 °F
N
1.0
Wind Variable Wind from SSE
Gusts 3.0 mph

Today
High -- | Low -- °F
--% Chance of Precip.
Yesterday
High -- | Low -- °F
Precip. -- in
Pressure 30.65 in
Visibility 10.0 miles
Clouds Clear
Windchill -6 °F
Dew Point -9 °F
Humidity 82%
Rainfall 0.00 in
Snow Depth Not available.
7:50 AM 4:28 PM
First Quarter, 52% visible
METAR KLWT 071254Z AUTO 25006KT 10SM CLR M24/M26 A3033 RMK AO2 SLP377 T12391261
Pressure 30.65 in
Visibility 10.0 miles
Clouds Clear
Windchill -6 °F
Dew Point -9 °F
Humidity 82%
Rainfall 0.00 in
Snow Depth Not available.
7:50 AM 4:28 PM
First Quarter, 52% visible
METAR KLWT 071254Z AUTO 25006KT 10SM CLR M24/M26 A3033 RMK AO2 SLP377 T12391261

10-Day Weather Forecast

Almanac

Astronomy

Dec. 07, 2016 Rise Set
Actual Time
Civil Twilight
Nautical Twilight
Astronomical Twilight
Moon
Length of Visible Light
Length of Day
Tomorrow will be .
, % of the Moon is Illuminated

Today's Extremes

State Highs State Lows

Community

WunderPhotos

Upload Photos

1,956,112 photos uploaded!

WunderBlog® & News

Nearby

Air Quality

  Air Quality AQ Index Pollutant
Not available.

Snow Depth

Station Depth Elevation

Earthquake Activity

City Distance Mag. Time & Date
Minimum magnitude displayed is 2.5.

Coastal Water Temperatures

Place Temperature

Stations

Nearby Weather Stations

Station Location Temp. Windchill Dew Point Humidity Wind Precip. Elev Updated Type
                   

Watches & Warnings

Wind Chill Advisory
Issued: 3:08 AM MST Dec. 7, 2016 – National Weather Service

... Wind Chill Advisory remains in effect until noon MST today...

* locations... Fairfield... Choteau... White Sulphur Springs...
Stanford... Lewistown... Lewistown Divide... Boulder... Boulder
Hill... Elk Park Pass... Homestake pass... Whitehall... Chinook...
Big Sandy... Fort Benton... Havre... Townsend... Great Falls...
Kings Hill Pass... Flesher Pass... Helena... Lincoln... MacDonald
Pass... Rogers Pass.

* Timing... cold temperatures and light winds will create wind
chill values around 20 below zero this morning.

* Winds... northwest 5 to 10 mph with gusts up to 20 mph.

* Wind chill values... 15 below to 25 below zero.

* Impacts... frostbite can occur in less than 30 minutes on
exposed skin.

Precautionary/preparedness actions...

A Wind Chill Advisory means that very cold air and winds will
combine to generate low wind chills. This will result in frost
bite and lead to hypothermia if precautions are not taken. If you
must venture outdoors... make sure you wear a hat and gloves.